Nyborg, Denmark
Current Conditions -  °F | °C
As of 11:50 AM on Sunday 23 Nov 2014 (Local Time) from EKAV Reporting Station
Broken Clouds Broken Clouds  
Wind Chill: 37°   Ceiling: 1200
Heat Index: 46°   Visibility: 6mi
Dew Point: 41°   Wind: 29mph
Humidity: 81%   Direction: 150°SSE
Pressure: 30.21"   Gusts: NA
Location:  55.31°N, 10.79°E
Report Text: EKAV 231050Z AUTO 15025KT 9999NDV BKN012/// 08/05 Q1023
Loading
Personal Weather Stations






























Interactive Weather Map New forecast layout! Learn more

10-Day Weather Forecast

Advertisements
Track Severe Weather on mobile